sensor_id;sensor_type;location;lat;lon;timestamp;temperature;humidity
53314;DHT22;39202;51.468;7.146;2022-10-29T00:03:35;26.30;47.40
53314;DHT22;39202;51.468;7.146;2022-10-29T00:08:37;26.20;47.30
53314;DHT22;39202;51.468;7.146;2022-10-29T00:13:41;26.30;47.40
53314;DHT22;39202;51.468;7.146;2022-10-29T00:18:43;26.30;47.40
53314;DHT22;39202;51.468;7.146;2022-10-29T00:23:45;26.20;47.40
53314;DHT22;39202;51.468;7.146;2022-10-29T00:28:51;26.20;47.40
53314;DHT22;39202;51.468;7.146;2022-10-29T00:33:54;26.20;47.40
53314;DHT22;39202;51.468;7.146;2022-10-29T00:38:55;26.20;47.40
53314;DHT22;39202;51.468;7.146;2022-10-29T00:44:30;26.20;47.40
53314;DHT22;39202;51.468;7.146;2022-10-29T00:49:33;26.20;47.40
53314;DHT22;39202;51.468;7.146;2022-10-29T00:54:38;26.20;47.40
53314;DHT22;39202;51.468;7.146;2022-10-29T00:59:43;26.20;47.40
53314;DHT22;39202;51.468;7.146;2022-10-29T01:04:46;26.20;47.40
53314;DHT22;39202;51.468;7.146;2022-10-29T01:09:49;26.20;47.40
53314;DHT22;39202;51.468;7.146;2022-10-29T01:15:03;26.20;47.40
53314;DHT22;39202;51.468;7.146;2022-10-29T01:26:12;26.20;47.40
53314;DHT22;39202;51.468;7.146;2022-10-29T01:31:29;26.20;47.40
53314;DHT22;39202;51.468;7.146;2022-10-29T01:36:39;26.20;47.40
53314;DHT22;39202;51.468;7.146;2022-10-29T01:41:50;26.10;47.30
53314;DHT22;39202;51.468;7.146;2022-10-29T01:46:56;26.10;47.30
53314;DHT22;39202;51.468;7.146;2022-10-29T01:51:59;26.10;47.30
53314;DHT22;39202;51.468;7.146;2022-10-29T01:57:02;26.10;47.40
53314;DHT22;39202;51.468;7.146;2022-10-29T02:02:14;26.10;47.40
53314;DHT22;39202;51.468;7.146;2022-10-29T02:07:39;26.10;47.40
53314;DHT22;39202;51.468;7.146;2022-10-29T02:12:45;26.10;47.40
53314;DHT22;39202;51.468;7.146;2022-10-29T02:17:49;26.10;47.40
53314;DHT22;39202;51.468;7.146;2022-10-29T02:22:51;26.10;47.40
53314;DHT22;39202;51.468;7.146;2022-10-29T02:27:52;26.10;47.40
53314;DHT22;39202;51.468;7.146;2022-10-29T02:32:55;26.10;47.40
53314;DHT22;39202;51.468;7.146;2022-10-29T02:37:57;26.10;47.40
53314;DHT22;39202;51.468;7.146;2022-10-29T02:42:59;26.10;48.00
53314;DHT22;39202;51.468;7.146;2022-10-29T02:48:02;26.10;47.40
53314;DHT22;39202;51.468;7.146;2022-10-29T02:53:04;26.10;47.40
53314;DHT22;39202;51.468;7.146;2022-10-29T02:58:05;26.10;47.40
53314;DHT22;39202;51.468;7.146;2022-10-29T03:03:08;26.10;47.40
53314;DHT22;39202;51.468;7.146;2022-10-29T03:08:10;26.10;47.50
53314;DHT22;39202;51.468;7.146;2022-10-29T03:13:12;26.10;47.40
53314;DHT22;39202;51.468;7.146;2022-10-29T03:18:15;26.10;47.40
53314;DHT22;39202;51.468;7.146;2022-10-29T03:23:17;26.00;47.40
53314;DHT22;39202;51.468;7.146;2022-10-29T03:28:18;26.00;47.40
53314;DHT22;39202;51.468;7.146;2022-10-29T03:33:22;26.00;47.40
53314;DHT22;39202;51.468;7.146;2022-10-29T03:38:26;26.00;47.40
53314;DHT22;39202;51.468;7.146;2022-10-29T03:43:27;26.00;47.40
53314;DHT22;39202;51.468;7.146;2022-10-29T03:48:30;26.00;47.40
53314;DHT22;39202;51.468;7.146;2022-10-29T03:53:33;26.00;47.40
53314;DHT22;39202;51.468;7.146;2022-10-29T03:58:35;26.00;47.40
53314;DHT22;39202;51.468;7.146;2022-10-29T04:03:38;26.00;47.40
53314;DHT22;39202;51.468;7.146;2022-10-29T04:08:42;26.00;47.50
53314;DHT22;39202;51.468;7.146;2022-10-29T04:13:43;26.00;47.40
53314;DHT22;39202;51.468;7.146;2022-10-29T04:18:47;26.00;47.50
53314;DHT22;39202;51.468;7.146;2022-10-29T04:23:48;25.90;47.40
53314;DHT22;39202;51.468;7.146;2022-10-29T04:28:51;25.90;47.40
53314;DHT22;39202;51.468;7.146;2022-10-29T04:33:54;25.90;47.40
53314;DHT22;39202;51.468;7.146;2022-10-29T04:38:55;25.90;47.40
53314;DHT22;39202;51.468;7.146;2022-10-29T04:43:57;26.00;47.50
53314;DHT22;39202;51.468;7.146;2022-10-29T04:49:01;26.00;47.40
53314;DHT22;39202;51.468;7.146;2022-10-29T04:54:02;26.00;47.40
53314;DHT22;39202;51.468;7.146;2022-10-29T04:59:04;25.90;47.40
53314;DHT22;39202;51.468;7.146;2022-10-29T05:04:07;25.90;47.40
53314;DHT22;39202;51.468;7.146;2022-10-29T05:09:09;25.90;47.40
53314;DHT22;39202;51.468;7.146;2022-10-29T05:14:11;25.30;47.00
53314;DHT22;39202;51.468;7.146;2022-10-29T05:19:14;25.90;48.00
53314;DHT22;39202;51.468;7.146;2022-10-29T05:24:15;25.90;47.40
53314;DHT22;39202;51.468;7.146;2022-10-29T05:29:17;25.90;47.40
53314;DHT22;39202;51.468;7.146;2022-10-29T05:34:20;25.90;47.50
53314;DHT22;39202;51.468;7.146;2022-10-29T05:39:22;25.90;47.50
53314;DHT22;39202;51.468;7.146;2022-10-29T05:44:23;25.90;47.50
53314;DHT22;39202;51.468;7.146;2022-10-29T05:49:26;25.90;47.50
53314;DHT22;39202;51.468;7.146;2022-10-29T05:54:28;25.90;47.50
53314;DHT22;39202;51.468;7.146;2022-10-29T05:59:29;25.90;47.50
53314;DHT22;39202;51.468;7.146;2022-10-29T06:04:34;25.90;47.50
53314;DHT22;39202;51.468;7.146;2022-10-29T06:09:36;25.90;47.60
53314;DHT22;39202;51.468;7.146;2022-10-29T06:14:37;25.80;47.50
53314;DHT22;39202;51.468;7.146;2022-10-29T06:19:40;25.90;47.60
53314;DHT22;39202;51.468;7.146;2022-10-29T06:24:42;25.80;47.50
53314;DHT22;39202;51.468;7.146;2022-10-29T06:29:44;25.80;47.50
53314;DHT22;39202;51.468;7.146;2022-10-29T06:34:47;25.80;47.50
53314;DHT22;39202;51.468;7.146;2022-10-29T06:39:48;25.80;47.50
53314;DHT22;39202;51.468;7.146;2022-10-29T06:44:50;25.80;47.60
53314;DHT22;39202;51.468;7.146;2022-10-29T06:49:53;25.80;47.50
53314;DHT22;39202;51.468;7.146;2022-10-29T06:54:55;25.80;47.50
53314;DHT22;39202;51.468;7.146;2022-10-29T06:59:56;25.80;47.50
53314;DHT22;39202;51.468;7.146;2022-10-29T07:04:59;25.80;47.50
53314;DHT22;39202;51.468;7.146;2022-10-29T07:10:01;25.80;47.60
53314;DHT22;39202;51.468;7.146;2022-10-29T07:15:03;25.80;47.60
53314;DHT22;39202;51.468;7.146;2022-10-29T07:20:08;25.80;47.60
53314;DHT22;39202;51.468;7.146;2022-10-29T07:25:10;25.80;47.60
53314;DHT22;39202;51.468;7.146;2022-10-29T07:30:12;24.20;46.70
53314;DHT22;39202;51.468;7.146;2022-10-29T07:35:15;25.80;47.50
53314;DHT22;39202;51.468;7.146;2022-10-29T07:40:17;25.80;47.50
53314;DHT22;39202;51.468;7.146;2022-10-29T07:45:19;25.80;47.50
53314;DHT22;39202;51.468;7.146;2022-10-29T07:50:22;25.80;47.50
53314;DHT22;39202;51.468;7.146;2022-10-29T07:55:23;25.80;47.60
53314;DHT22;39202;51.468;7.146;2022-10-29T08:00:25;25.80;47.60
53314;DHT22;39202;51.468;7.146;2022-10-29T08:05:29;25.80;47.70
53314;DHT22;39202;51.468;7.146;2022-10-29T08:10:32;25.90;47.80
53314;DHT22;39202;51.468;7.146;2022-10-29T08:15:35;25.90;47.80
53314;DHT22;39202;51.468;7.146;2022-10-29T08:20:38;25.90;47.80
53314;DHT22;39202;51.468;7.146;2022-10-29T08:25:39;25.90;48.30
53314;DHT22;39202;51.468;7.146;2022-10-29T08:30:42;25.90;47.70
53314;DHT22;39202;51.468;7.146;2022-10-29T08:35:46;25.90;47.70
53314;DHT22;39202;51.468;7.146;2022-10-29T08:40:58;25.90;47.70
53314;DHT22;39202;51.468;7.146;2022-10-29T08:46:01;25.90;47.80
53314;DHT22;39202;51.468;7.146;2022-10-29T08:51:12;26.00;47.80
53314;DHT22;39202;51.468;7.146;2022-10-29T08:56:17;25.90;47.80
53314;DHT22;39202;51.468;7.146;2022-10-29T09:01:21;26.00;47.80
53314;DHT22;39202;51.468;7.146;2022-10-29T09:06:31;26.00;47.80
53314;DHT22;39202;51.468;7.146;2022-10-29T09:11:59;26.00;47.90
53314;DHT22;39202;51.468;7.146;2022-10-29T09:17:09;26.10;47.90
53314;DHT22;39202;51.468;7.146;2022-10-29T09:22:20;26.10;47.90
53314;DHT22;39202;51.468;7.146;2022-10-29T09:27:29;26.10;47.90
53314;DHT22;39202;51.468;7.146;2022-10-29T09:32:37;26.10;47.90
53314;DHT22;39202;51.468;7.146;2022-10-29T09:37:46;26.10;47.80
53314;DHT22;39202;51.468;7.146;2022-10-29T09:42:49;26.20;47.80
53314;DHT22;39202;51.468;7.146;2022-10-29T09:47:57;26.20;47.80
53314;DHT22;39202;51.468;7.146;2022-10-29T09:53:02;26.20;47.80
53314;DHT22;39202;51.468;7.146;2022-10-29T09:58:05;26.20;47.80
53314;DHT22;39202;51.468;7.146;2022-10-29T10:03:13;26.20;47.80
53314;DHT22;39202;51.468;7.146;2022-10-29T10:08:17;26.20;47.80
53314;DHT22;39202;51.468;7.146;2022-10-29T10:13:19;26.20;47.70
53314;DHT22;39202;51.468;7.146;2022-10-29T10:18:24;26.30;47.80
53314;DHT22;39202;51.468;7.146;2022-10-29T10:23:29;26.30;47.70
53314;DHT22;39202;51.468;7.146;2022-10-29T10:28:39;26.30;47.70
53314;DHT22;39202;51.468;7.146;2022-10-29T10:33:49;26.30;47.70
53314;DHT22;39202;51.468;7.146;2022-10-29T10:38:54;26.30;47.70
53314;DHT22;39202;51.468;7.146;2022-10-29T10:43:58;26.30;47.70
53314;DHT22;39202;51.468;7.146;2022-10-29T10:49:03;26.40;47.80
53314;DHT22;39202;51.468;7.146;2022-10-29T10:54:25;26.40;47.70
53314;DHT22;39202;51.468;7.146;2022-10-29T10:59:38;26.40;47.70
53314;DHT22;39202;51.468;7.146;2022-10-29T11:04:42;26.50;47.70
53314;DHT22;39202;51.468;7.146;2022-10-29T11:09:50;26.50;47.70
53314;DHT22;39202;51.468;7.146;2022-10-29T11:14:56;26.50;47.70
53314;DHT22;39202;51.468;7.146;2022-10-29T11:20:03;26.50;47.70
53314;DHT22;39202;51.468;7.146;2022-10-29T11:25:14;26.50;47.70
53314;DHT22;39202;51.468;7.146;2022-10-29T11:30:18;26.60;47.70
53314;DHT22;39202;51.468;7.146;2022-10-29T11:35:26;26.60;47.70
53314;DHT22;39202;51.468;7.146;2022-10-29T11:40:39;26.60;47.70
53314;DHT22;39202;51.468;7.146;2022-10-29T11:45:50;26.70;47.70
53314;DHT22;39202;51.468;7.146;2022-10-29T11:50:59;26.70;47.70
53314;DHT22;39202;51.468;7.146;2022-10-29T11:56:11;26.80;47.70
53314;DHT22;39202;51.468;7.146;2022-10-29T12:01:19;26.80;47.60
53314;DHT22;39202;51.468;7.146;2022-10-29T12:06:31;26.80;47.60
53314;DHT22;39202;51.468;7.146;2022-10-29T12:11:39;26.90;47.60
53314;DHT22;39202;51.468;7.146;2022-10-29T12:16:48;26.90;47.60
53314;DHT22;39202;51.468;7.146;2022-10-29T12:21:55;26.90;47.50
53314;DHT22;39202;51.468;7.146;2022-10-29T12:27:05;26.90;47.50
53314;DHT22;39202;51.468;7.146;2022-10-29T12:32:14;27.00;47.50
53314;DHT22;39202;51.468;7.146;2022-10-29T12:37:23;27.00;47.50
53314;DHT22;39202;51.468;7.146;2022-10-29T12:42:29;27.00;47.40
53314;DHT22;39202;51.468;7.146;2022-10-29T12:47:34;27.00;47.40
53314;DHT22;39202;51.468;7.146;2022-10-29T12:52:40;27.00;47.40
53314;DHT22;39202;51.468;7.146;2022-10-29T12:57:45;27.00;47.40
53314;DHT22;39202;51.468;7.146;2022-10-29T13:02:47;27.00;47.40
53314;DHT22;39202;51.468;7.146;2022-10-29T13:08:16;27.00;47.50
53314;DHT22;39202;51.468;7.146;2022-10-29T13:19:02;27.00;47.40
53314;DHT22;39202;51.468;7.146;2022-10-29T13:24:15;27.00;47.40
53314;DHT22;39202;51.468;7.146;2022-10-29T13:29:40;27.00;47.30
53314;DHT22;39202;51.468;7.146;2022-10-29T13:34:55;27.00;47.40
53314;DHT22;39202;51.468;7.146;2022-10-29T13:45:41;27.00;47.40
53314;DHT22;39202;51.468;7.146;2022-10-29T13:50:48;27.00;47.40
53314;DHT22;39202;51.468;7.146;2022-10-29T13:55:50;27.00;47.40
53314;DHT22;39202;51.468;7.146;2022-10-29T14:00:55;27.00;47.50
53314;DHT22;39202;51.468;7.146;2022-10-29T14:06:02;27.00;47.40
53314;DHT22;39202;51.468;7.146;2022-10-29T14:11:11;27.00;47.40
53314;DHT22;39202;51.468;7.146;2022-10-29T14:16:16;27.00;47.40
53314;DHT22;39202;51.468;7.146;2022-10-29T14:21:22;27.00;47.40
53314;DHT22;39202;51.468;7.146;2022-10-29T14:26:24;27.00;47.50
53314;DHT22;39202;51.468;7.146;2022-10-29T14:31:28;26.90;47.40
53314;DHT22;39202;51.468;7.146;2022-10-29T14:36:33;26.90;47.40
53314;DHT22;39202;51.468;7.146;2022-10-29T14:41:38;26.90;47.40
53314;DHT22;39202;51.468;7.146;2022-10-29T14:46:41;26.90;47.40
53314;DHT22;39202;51.468;7.146;2022-10-29T14:51:49;26.90;47.40
53314;DHT22;39202;51.468;7.146;2022-10-29T14:56:54;26.90;47.40
53314;DHT22;39202;51.468;7.146;2022-10-29T15:02:00;26.90;47.40
53314;DHT22;39202;51.468;7.146;2022-10-29T15:07:20;26.90;47.40
53314;DHT22;39202;51.468;7.146;2022-10-29T15:12:33;26.90;47.40
53314;DHT22;39202;51.468;7.146;2022-10-29T15:17:42;26.90;47.40
53314;DHT22;39202;51.468;7.146;2022-10-29T15:22:51;26.90;47.40
53314;DHT22;39202;51.468;7.146;2022-10-29T15:27:54;26.90;47.40
53314;DHT22;39202;51.468;7.146;2022-10-29T15:32:58;26.90;47.40
53314;DHT22;39202;51.468;7.146;2022-10-29T15:38:01;26.90;47.40
53314;DHT22;39202;51.468;7.146;2022-10-29T15:43:27;26.90;47.50
53314;DHT22;39202;51.468;7.146;2022-10-29T15:48:35;26.80;47.40
53314;DHT22;39202;51.468;7.146;2022-10-29T15:53:37;26.80;47.40
53314;DHT22;39202;51.468;7.146;2022-10-29T15:58:39;26.80;47.40
53314;DHT22;39202;51.468;7.146;2022-10-29T16:03:43;26.80;47.40
53314;DHT22;39202;51.468;7.146;2022-10-29T16:08:47;26.80;47.40
53314;DHT22;39202;51.468;7.146;2022-10-29T16:13:50;26.80;47.50
53314;DHT22;39202;51.468;7.146;2022-10-29T16:18:53;26.80;47.50
53314;DHT22;39202;51.468;7.146;2022-10-29T16:23:55;26.80;47.50
53314;DHT22;39202;51.468;7.146;2022-10-29T16:28:57;26.80;47.50
53314;DHT22;39202;51.468;7.146;2022-10-29T16:34:03;26.70;47.40
53314;DHT22;39202;51.468;7.146;2022-10-29T16:39:05;26.80;47.50
53314;DHT22;39202;51.468;7.146;2022-10-29T16:44:06;26.70;47.40
53314;DHT22;39202;51.468;7.146;2022-10-29T16:49:09;26.70;47.50
53314;DHT22;39202;51.468;7.146;2022-10-29T16:54:11;26.80;47.50
53314;DHT22;39202;51.468;7.146;2022-10-29T16:59:13;26.70;47.40
53314;DHT22;39202;51.468;7.146;2022-10-29T17:04:16;26.70;47.40
53314;DHT22;39202;51.468;7.146;2022-10-29T17:09:17;26.70;47.40
53314;DHT22;39202;51.468;7.146;2022-10-29T17:14:19;26.70;47.50
53314;DHT22;39202;51.468;7.146;2022-10-29T17:19:22;26.70;47.50
53314;DHT22;39202;51.468;7.146;2022-10-29T17:24:24;26.70;47.50
53314;DHT22;39202;51.468;7.146;2022-10-29T17:29:26;26.70;47.50
53314;DHT22;39202;51.468;7.146;2022-10-29T17:34:29;26.70;47.50
53314;DHT22;39202;51.468;7.146;2022-10-29T17:39:31;26.70;47.50
53314;DHT22;39202;51.468;7.146;2022-10-29T17:44:33;26.70;47.50
53314;DHT22;39202;51.468;7.146;2022-10-29T17:49:37;26.70;47.50
53314;DHT22;39202;51.468;7.146;2022-10-29T17:54:38;26.70;47.50
53314;DHT22;39202;51.468;7.146;2022-10-29T17:59:40;26.70;47.50
53314;DHT22;39202;51.468;7.146;2022-10-29T18:04:44;26.70;47.50
53314;DHT22;39202;51.468;7.146;2022-10-29T18:09:45;26.70;47.60
53314;DHT22;39202;51.468;7.146;2022-10-29T18:14:47;26.70;47.60
53314;DHT22;39202;51.468;7.146;2022-10-29T18:19:50;26.70;47.40
53314;DHT22;39202;51.468;7.146;2022-10-29T18:24:52;26.70;47.40
53314;DHT22;39202;51.468;7.146;2022-10-29T18:29:53;26.70;47.40
53314;DHT22;39202;51.468;7.146;2022-10-29T18:34:56;26.70;47.40
53314;DHT22;39202;51.468;7.146;2022-10-29T18:39:58;26.70;47.50
53314;DHT22;39202;51.468;7.146;2022-10-29T18:45:00;26.70;47.50
53314;DHT22;39202;51.468;7.146;2022-10-29T18:50:04;26.60;47.50
53314;DHT22;39202;51.468;7.146;2022-10-29T18:55:06;26.70;47.60
53314;DHT22;39202;51.468;7.146;2022-10-29T19:00:09;26.60;47.50
53314;DHT22;39202;51.468;7.146;2022-10-29T19:05:12;26.60;47.50
53314;DHT22;39202;51.468;7.146;2022-10-29T19:10:14;26.60;47.40
53314;DHT22;39202;51.468;7.146;2022-10-29T19:15:16;26.60;48.00
53314;DHT22;39202;51.468;7.146;2022-10-29T19:20:19;26.60;47.40
53314;DHT22;39202;51.468;7.146;2022-10-29T19:25:21;26.60;47.40
53314;DHT22;39202;51.468;7.146;2022-10-29T19:30:22;26.60;47.40
53314;DHT22;39202;51.468;7.146;2022-10-29T19:35:26;26.60;47.40
53314;DHT22;39202;51.468;7.146;2022-10-29T19:40:27;26.60;47.40
53314;DHT22;39202;51.468;7.146;2022-10-29T19:45:30;26.50;47.30
53314;DHT22;39202;51.468;7.146;2022-10-29T19:50:33;26.60;47.40
53314;DHT22;39202;51.468;7.146;2022-10-29T19:55:38;26.50;47.30
53314;DHT22;39202;51.468;7.146;2022-10-29T20:00:40;26.50;47.30
53314;DHT22;39202;51.468;7.146;2022-10-29T20:05:44;26.50;47.30
53314;DHT22;39202;51.468;7.146;2022-10-29T20:10:52;26.50;47.30
53314;DHT22;39202;51.468;7.146;2022-10-29T20:15:54;26.50;47.30
53314;DHT22;39202;51.468;7.146;2022-10-29T20:20:57;26.50;47.30
53314;DHT22;39202;51.468;7.146;2022-10-29T20:25:59;26.50;47.30
53314;DHT22;39202;51.468;7.146;2022-10-29T20:31:12;26.50;47.30
53314;DHT22;39202;51.468;7.146;2022-10-29T20:36:15;26.50;47.30
53314;DHT22;39202;51.468;7.146;2022-10-29T20:41:17;26.50;47.30
53314;DHT22;39202;51.468;7.146;2022-10-29T20:46:19;26.50;47.30
53314;DHT22;39202;51.468;7.146;2022-10-29T20:51:23;26.50;47.30
53314;DHT22;39202;51.468;7.146;2022-10-29T20:56:26;26.50;47.30
53314;DHT22;39202;51.468;7.146;2022-10-29T21:01:28;26.50;47.30
53314;DHT22;39202;51.468;7.146;2022-10-29T21:06:31;26.50;47.30
53314;DHT22;39202;51.468;7.146;2022-10-29T21:11:32;26.50;47.30
53314;DHT22;39202;51.468;7.146;2022-10-29T21:16:34;26.50;47.30
53314;DHT22;39202;51.468;7.146;2022-10-29T21:21:37;26.50;47.30
53314;DHT22;39202;51.468;7.146;2022-10-29T21:26:39;26.50;47.30
53314;DHT22;39202;51.468;7.146;2022-10-29T21:31:41;26.50;47.30
53314;DHT22;39202;51.468;7.146;2022-10-29T21:36:44;26.50;47.30
53314;DHT22;39202;51.468;7.146;2022-10-29T21:41:45;26.50;47.30
53314;DHT22;39202;51.468;7.146;2022-10-29T21:46:47;26.50;47.30
53314;DHT22;39202;51.468;7.146;2022-10-29T21:51:50;26.40;47.30
53314;DHT22;39202;51.468;7.146;2022-10-29T21:56:52;26.40;47.20
53314;DHT22;39202;51.468;7.146;2022-10-29T22:01:53;26.40;47.20
53314;DHT22;39202;51.468;7.146;2022-10-29T22:06:56;26.40;47.20
53314;DHT22;39202;51.468;7.146;2022-10-29T22:11:59;26.40;47.20
53314;DHT22;39202;51.468;7.146;2022-10-29T22:17:01;26.40;47.20
53314;DHT22;39202;51.468;7.146;2022-10-29T22:22:04;26.40;47.20
53314;DHT22;39202;51.468;7.146;2022-10-29T22:27:05;26.40;47.20
53314;DHT22;39202;51.468;7.146;2022-10-29T22:32:07;26.40;47.20
53314;DHT22;39202;51.468;7.146;2022-10-29T22:37:10;26.40;47.20
53314;DHT22;39202;51.468;7.146;2022-10-29T22:42:12;27.10;48.30
53314;DHT22;39202;51.468;7.146;2022-10-29T22:47:13;26.40;47.20
53314;DHT22;39202;51.468;7.146;2022-10-29T22:52:16;26.40;47.30
53314;DHT22;39202;51.468;7.146;2022-10-29T22:57:18;26.40;47.30
53314;DHT22;39202;51.468;7.146;2022-10-29T23:02:20;26.40;47.20
53314;DHT22;39202;51.468;7.146;2022-10-29T23:07:23;26.40;47.30
53314;DHT22;39202;51.468;7.146;2022-10-29T23:12:24;26.40;47.20
53314;DHT22;39202;51.468;7.146;2022-10-29T23:17:26;26.40;47.20
53314;DHT22;39202;51.468;7.146;2022-10-29T23:22:29;26.40;47.20
53314;DHT22;39202;51.468;7.146;2022-10-29T23:27:31;26.30;47.20
53314;DHT22;39202;51.468;7.146;2022-10-29T23:32:33;26.40;47.20
53314;DHT22;39202;51.468;7.146;2022-10-29T23:37:36;26.40;47.20
53314;DHT22;39202;51.468;7.146;2022-10-29T23:42:38;26.30;47.20
53314;DHT22;39202;51.468;7.146;2022-10-29T23:47:40;26.40;47.20
53314;DHT22;39202;51.468;7.146;2022-10-29T23:52:43;26.40;47.20
53314;DHT22;39202;51.468;7.146;2022-10-29T23:57:45;26.30;47.20
